sensor_id;sensor_type;location;lat;lon;timestamp;noise_LAeq;noise_LA_min;noise_LA_max;noise_LA01;noise_LA95
41704;Laerm;861;48.808;9.006;2023-06-14T00:00:45;35.79;34.52;37.10;;
41704;Laerm;861;48.808;9.006;2023-06-14T00:03:12;35.80;34.54;36.97;;
41704;Laerm;861;48.808;9.006;2023-06-14T00:05:44;35.81;34.56;37.03;;
41704;Laerm;861;48.808;9.006;2023-06-14T00:08:13;35.79;34.59;37.07;;
41704;Laerm;861;48.808;9.006;2023-06-14T00:10:40;35.73;34.55;36.85;;
41704;Laerm;861;48.808;9.006;2023-06-14T00:13:10;35.64;34.23;36.87;;
41704;Laerm;861;48.808;9.006;2023-06-14T00:15:38;35.61;34.38;36.78;;
41704;Laerm;861;48.808;9.006;2023-06-14T00:18:05;35.59;34.35;36.92;;
41704;Laerm;861;48.808;9.006;2023-06-14T00:20:33;35.62;34.28;36.83;;
41704;Laerm;861;48.808;9.006;2023-06-14T00:23:01;35.54;34.05;36.70;;
41704;Laerm;861;48.808;9.006;2023-06-14T00:25:29;35.51;34.38;36.61;;
41704;Laerm;861;48.808;9.006;2023-06-14T00:27:57;35.44;34.18;36.62;;
41704;Laerm;861;48.808;9.006;2023-06-14T00:30:25;35.16;33.91;36.26;;
41704;Laerm;861;48.808;9.006;2023-06-14T00:32:56;35.29;34.05;36.39;;
41704;Laerm;861;48.808;9.006;2023-06-14T00:35:24;35.26;33.78;36.57;;
41704;Laerm;861;48.808;9.006;2023-06-14T00:37:51;35.37;34.04;36.57;;
41704;Laerm;861;48.808;9.006;2023-06-14T00:40:18;35.30;33.88;36.49;;
41704;Laerm;861;48.808;9.006;2023-06-14T00:42:45;35.25;33.98;36.32;;
41704;Laerm;861;48.808;9.006;2023-06-14T00:45:12;35.28;33.96;36.49;;
41704;Laerm;861;48.808;9.006;2023-06-14T00:47:43;35.30;33.94;36.48;;
41704;Laerm;861;48.808;9.006;2023-06-14T00:50:11;35.28;33.95;36.48;;
41704;Laerm;861;48.808;9.006;2023-06-14T00:52:40;35.28;34.16;36.43;;
41704;Laerm;861;48.808;9.006;2023-06-14T00:55:08;35.15;33.86;36.32;;
41704;Laerm;861;48.808;9.006;2023-06-14T00:57:35;35.05;33.70;36.19;;
41704;Laerm;861;48.808;9.006;2023-06-14T01:00:05;34.94;33.57;36.33;;
41704;Laerm;861;48.808;9.006;2023-06-14T01:02:38;34.99;33.78;36.15;;
41704;Laerm;861;48.808;9.006;2023-06-14T01:05:08;35.03;33.70;36.29;;
41704;Laerm;861;48.808;9.006;2023-06-14T01:08:36;35.07;33.77;36.39;;
41704;Laerm;861;48.808;9.006;2023-06-14T01:11:33;34.95;33.71;36.19;;
41704;Laerm;861;48.808;9.006;2023-06-14T01:14:04;35.00;33.53;36.34;;
41704;Laerm;861;48.808;9.006;2023-06-14T01:16:33;34.93;33.71;36.13;;
41704;Laerm;861;48.808;9.006;2023-06-14T01:19:03;34.88;33.54;35.98;;
41704;Laerm;861;48.808;9.006;2023-06-14T01:21:30;34.96;33.78;36.23;;
41704;Laerm;861;48.808;9.006;2023-06-14T01:23:56;34.92;33.72;36.08;;
41704;Laerm;861;48.808;9.006;2023-06-14T01:26:23;35.07;33.69;36.31;;
41704;Laerm;861;48.808;9.006;2023-06-14T01:28:53;35.02;33.83;36.24;;
41704;Laerm;861;48.808;9.006;2023-06-14T01:31:25;34.98;33.65;36.18;;
41704;Laerm;861;48.808;9.006;2023-06-14T01:33:54;35.01;33.75;36.21;;
41704;Laerm;861;48.808;9.006;2023-06-14T01:36:26;34.90;33.53;36.10;;
41704;Laerm;861;48.808;9.006;2023-06-14T01:38:54;35.01;33.65;36.15;;
41704;Laerm;861;48.808;9.006;2023-06-14T01:41:24;35.06;33.70;36.42;;
41704;Laerm;861;48.808;9.006;2023-06-14T01:43:54;35.14;33.73;36.40;;
41704;Laerm;861;48.808;9.006;2023-06-14T01:46:24;35.04;33.80;36.32;;
41704;Laerm;861;48.808;9.006;2023-06-14T01:48:52;35.03;33.63;36.11;;
41704;Laerm;861;48.808;9.006;2023-06-14T01:51:18;35.00;33.69;36.84;;
41704;Laerm;861;48.808;9.006;2023-06-14T01:53:45;34.94;33.85;36.15;;
41704;Laerm;861;48.808;9.006;2023-06-14T01:56:13;34.96;33.70;36.27;;
41704;Laerm;861;48.808;9.006;2023-06-14T01:58:39;34.92;33.54;36.19;;
41704;Laerm;861;48.808;9.006;2023-06-14T02:01:06;34.97;33.32;36.11;;
41704;Laerm;861;48.808;9.006;2023-06-14T02:03:33;34.96;33.72;36.18;;
41704;Laerm;861;48.808;9.006;2023-06-14T02:06:00;34.95;33.45;36.24;;
41704;Laerm;861;48.808;9.006;2023-06-14T02:08:27;34.87;33.49;35.96;;
41704;Laerm;861;48.808;9.006;2023-06-14T02:10:53;34.88;33.40;35.94;;
41704;Laerm;861;48.808;9.006;2023-06-14T02:13:20;34.85;33.45;36.13;;
41704;Laerm;861;48.808;9.006;2023-06-14T02:15:46;34.81;33.55;36.04;;
41704;Laerm;861;48.808;9.006;2023-06-14T02:18:17;34.76;33.41;36.87;;
41704;Laerm;861;48.808;9.006;2023-06-14T02:20:44;34.75;33.50;35.88;;
41704;Laerm;861;48.808;9.006;2023-06-14T02:23:10;34.76;33.35;35.87;;
41704;Laerm;861;48.808;9.006;2023-06-14T02:25:37;34.76;33.17;36.06;;
41704;Laerm;861;48.808;9.006;2023-06-14T02:28:04;34.73;33.35;35.88;;
41704;Laerm;861;48.808;9.006;2023-06-14T02:30:30;34.71;33.54;36.14;;
41704;Laerm;861;48.808;9.006;2023-06-14T02:32:57;34.71;33.51;36.01;;
41704;Laerm;861;48.808;9.006;2023-06-14T02:35:25;34.71;33.35;35.87;;
41704;Laerm;861;48.808;9.006;2023-06-14T02:37:53;34.79;33.42;35.93;;
41704;Laerm;861;48.808;9.006;2023-06-14T02:40:20;34.79;33.40;35.90;;
41704;Laerm;861;48.808;9.006;2023-06-14T02:42:47;34.80;33.31;36.62;;
41704;Laerm;861;48.808;9.006;2023-06-14T02:45:14;34.71;33.20;36.23;;
41704;Laerm;861;48.808;9.006;2023-06-14T02:47:41;34.71;33.33;35.94;;
41704;Laerm;861;48.808;9.006;2023-06-14T02:50:08;34.69;33.50;35.83;;
41704;Laerm;861;48.808;9.006;2023-06-14T02:52:35;34.71;33.56;36.63;;
41704;Laerm;861;48.808;9.006;2023-06-14T02:55:02;34.73;33.44;35.93;;
41704;Laerm;861;48.808;9.006;2023-06-14T02:57:28;34.80;33.51;36.12;;
41704;Laerm;861;48.808;9.006;2023-06-14T02:59:55;34.83;33.66;36.01;;
41704;Laerm;861;48.808;9.006;2023-06-14T03:02:22;34.85;33.27;36.21;;
41704;Laerm;861;48.808;9.006;2023-06-14T03:04:48;34.85;33.46;36.01;;
41704;Laerm;861;48.808;9.006;2023-06-14T03:07:15;34.94;33.62;36.05;;
41704;Laerm;861;48.808;9.006;2023-06-14T03:09:46;34.87;33.60;36.74;;
41704;Laerm;861;48.808;9.006;2023-06-14T03:12:13;34.89;33.60;36.20;;
41704;Laerm;861;48.808;9.006;2023-06-14T03:14:39;34.91;33.62;36.90;;
41704;Laerm;861;48.808;9.006;2023-06-14T03:17:06;34.84;33.61;36.03;;
41704;Laerm;861;48.808;9.006;2023-06-14T03:19:34;34.84;33.60;36.61;;
41704;Laerm;861;48.808;9.006;2023-06-14T03:22:01;34.92;33.67;38.51;;
41704;Laerm;861;48.808;9.006;2023-06-14T03:24:28;34.87;33.60;36.94;;
41704;Laerm;861;48.808;9.006;2023-06-14T03:26:55;34.78;33.40;36.62;;
41704;Laerm;861;48.808;9.006;2023-06-14T03:29:23;34.83;33.46;36.18;;
41704;Laerm;861;48.808;9.006;2023-06-14T03:32:08;34.88;33.58;36.00;;
41704;Laerm;861;48.808;9.006;2023-06-14T03:34:35;34.88;33.53;36.30;;
41704;Laerm;861;48.808;9.006;2023-06-14T03:37:01;34.93;33.45;38.49;;
41704;Laerm;861;48.808;9.006;2023-06-14T03:39:28;34.93;33.61;36.39;;
41704;Laerm;861;48.808;9.006;2023-06-14T03:41:54;34.91;33.44;36.98;;
41704;Laerm;861;48.808;9.006;2023-06-14T03:44:22;34.85;33.39;36.14;;
41704;Laerm;861;48.808;9.006;2023-06-14T03:46:48;34.86;33.57;36.39;;
41704;Laerm;861;48.808;9.006;2023-06-14T03:49:15;34.90;33.60;37.12;;
41704;Laerm;861;48.808;9.006;2023-06-14T03:51:43;34.90;33.63;36.30;;
41704;Laerm;861;48.808;9.006;2023-06-14T03:54:10;34.89;33.51;35.95;;
41704;Laerm;861;48.808;9.006;2023-06-14T03:56:36;34.88;33.56;36.54;;
41704;Laerm;861;48.808;9.006;2023-06-14T03:59:03;34.89;33.63;38.64;;
41704;Laerm;861;48.808;9.006;2023-06-14T04:01:30;34.91;33.56;35.98;;
41704;Laerm;861;48.808;9.006;2023-06-14T04:03:58;34.91;33.68;36.07;;
41704;Laerm;861;48.808;9.006;2023-06-14T04:06:24;34.96;33.73;36.12;;
41704;Laerm;861;48.808;9.006;2023-06-14T04:09:01;34.97;33.77;36.42;;
41704;Laerm;861;48.808;9.006;2023-06-14T04:11:28;34.95;33.71;36.18;;
41704;Laerm;861;48.808;9.006;2023-06-14T04:13:55;35.00;33.75;36.21;;
41704;Laerm;861;48.808;9.006;2023-06-14T04:16:23;34.94;33.57;36.45;;
41704;Laerm;861;48.808;9.006;2023-06-14T04:18:50;34.97;33.34;38.41;;
41704;Laerm;861;48.808;9.006;2023-06-14T04:21:19;34.97;33.82;36.23;;
41704;Laerm;861;48.808;9.006;2023-06-14T04:23:46;35.01;33.65;40.39;;
41704;Laerm;861;48.808;9.006;2023-06-14T04:26:13;35.00;33.66;36.09;;
41704;Laerm;861;48.808;9.006;2023-06-14T04:28:40;35.00;33.56;36.50;;
41704;Laerm;861;48.808;9.006;2023-06-14T04:31:08;35.00;33.83;36.53;;
41704;Laerm;861;48.808;9.006;2023-06-14T04:33:38;35.05;33.85;36.22;;
41704;Laerm;861;48.808;9.006;2023-06-14T04:36:13;35.10;33.77;37.04;;
41704;Laerm;861;48.808;9.006;2023-06-14T04:38:40;35.13;33.79;36.44;;
41704;Laerm;861;48.808;9.006;2023-06-14T04:41:07;35.13;33.83;36.19;;
41704;Laerm;861;48.808;9.006;2023-06-14T04:43:39;35.17;33.86;36.43;;
41704;Laerm;861;48.808;9.006;2023-06-14T04:46:06;35.18;33.75;36.39;;
41704;Laerm;861;48.808;9.006;2023-06-14T04:48:40;35.21;34.09;36.40;;
41704;Laerm;861;48.808;9.006;2023-06-14T04:51:09;35.16;33.53;36.57;;
41704;Laerm;861;48.808;9.006;2023-06-14T04:53:36;35.17;33.98;36.38;;
41704;Laerm;861;48.808;9.006;2023-06-14T04:56:04;35.18;33.94;36.36;;
41704;Laerm;861;48.808;9.006;2023-06-14T04:58:31;35.21;34.04;36.50;;
41704;Laerm;861;48.808;9.006;2023-06-14T05:00:58;35.17;33.89;36.44;;
41704;Laerm;861;48.808;9.006;2023-06-14T05:03:26;35.19;34.09;36.54;;
41704;Laerm;861;48.808;9.006;2023-06-14T05:05:54;35.26;34.08;36.44;;
41704;Laerm;861;48.808;9.006;2023-06-14T05:08:22;35.26;33.57;36.57;;
41704;Laerm;861;48.808;9.006;2023-06-14T05:10:52;35.31;33.96;36.47;;
41704;Laerm;861;48.808;9.006;2023-06-14T05:13:19;35.32;33.91;36.61;;
41704;Laerm;861;48.808;9.006;2023-06-14T05:15:47;35.38;34.05;36.86;;
41704;Laerm;861;48.808;9.006;2023-06-14T05:18:15;35.48;34.06;36.55;;
41704;Laerm;861;48.808;9.006;2023-06-14T05:20:42;35.50;34.17;36.62;;
41704;Laerm;861;48.808;9.006;2023-06-14T05:23:10;35.51;34.24;36.68;;
41704;Laerm;861;48.808;9.006;2023-06-14T05:25:46;35.53;34.19;36.68;;
41704;Laerm;861;48.808;9.006;2023-06-14T05:28:13;35.59;34.37;36.68;;
41704;Laerm;861;48.808;9.006;2023-06-14T05:30:40;35.64;34.05;36.91;;
41704;Laerm;861;48.808;9.006;2023-06-14T05:33:07;35.69;34.42;36.80;;
41704;Laerm;861;48.808;9.006;2023-06-14T05:35:34;35.71;34.50;36.82;;
41704;Laerm;861;48.808;9.006;2023-06-14T05:38:00;35.76;34.21;36.90;;
41704;Laerm;861;48.808;9.006;2023-06-14T05:40:27;35.79;34.41;37.22;;
41704;Laerm;861;48.808;9.006;2023-06-14T05:42:54;35.80;34.33;37.07;;
41704;Laerm;861;48.808;9.006;2023-06-14T05:45:21;35.82;34.19;36.97;;
41704;Laerm;861;48.808;9.006;2023-06-14T05:47:47;35.91;34.68;37.06;;
41704;Laerm;861;48.808;9.006;2023-06-14T05:50:14;35.96;34.77;37.35;;
41704;Laerm;861;48.808;9.006;2023-06-14T05:52:40;36.02;34.78;37.33;;
41704;Laerm;861;48.808;9.006;2023-06-14T05:55:07;36.03;34.75;37.13;;
41704;Laerm;861;48.808;9.006;2023-06-14T05:57:34;36.02;34.49;37.16;;
41704;Laerm;861;48.808;9.006;2023-06-14T06:00:02;36.07;34.81;37.17;;
41704;Laerm;861;48.808;9.006;2023-06-14T06:02:36;36.10;34.65;37.32;;
41704;Laerm;861;48.808;9.006;2023-06-14T06:05:02;36.14;34.84;37.43;;
41704;Laerm;861;48.808;9.006;2023-06-14T06:07:29;36.17;34.92;37.24;;
41704;Laerm;861;48.808;9.006;2023-06-14T06:09:55;36.20;34.69;37.51;;
41704;Laerm;861;48.808;9.006;2023-06-14T06:12:22;36.24;34.93;37.58;;
41704;Laerm;861;48.808;9.006;2023-06-14T06:14:48;36.26;34.90;37.64;;
41704;Laerm;861;48.808;9.006;2023-06-14T06:17:15;36.26;34.97;37.61;;
41704;Laerm;861;48.808;9.006;2023-06-14T06:19:41;36.29;34.91;37.60;;
41704;Laerm;861;48.808;9.006;2023-06-14T06:22:08;36.27;34.84;37.52;;
41704;Laerm;861;48.808;9.006;2023-06-14T06:24:34;36.32;34.91;37.67;;
41704;Laerm;861;48.808;9.006;2023-06-14T06:27:01;36.35;34.95;37.54;;
41704;Laerm;861;48.808;9.006;2023-06-14T06:29:28;36.35;35.15;37.47;;
41704;Laerm;861;48.808;9.006;2023-06-14T06:31:55;36.35;35.08;37.58;;
41704;Laerm;861;48.808;9.006;2023-06-14T06:34:23;36.35;35.08;37.56;;
41704;Laerm;861;48.808;9.006;2023-06-14T06:36:50;36.37;35.14;37.55;;
41704;Laerm;861;48.808;9.006;2023-06-14T06:39:17;36.42;34.98;37.66;;
41704;Laerm;861;48.808;9.006;2023-06-14T06:41:43;36.43;35.04;37.49;;
41704;Laerm;861;48.808;9.006;2023-06-14T06:44:10;36.46;35.21;37.90;;
41704;Laerm;861;48.808;9.006;2023-06-14T06:46:38;36.49;35.09;37.83;;
41704;Laerm;861;48.808;9.006;2023-06-14T06:49:08;36.53;35.22;37.84;;
41704;Laerm;861;48.808;9.006;2023-06-14T06:51:36;36.55;35.05;37.62;;
41704;Laerm;861;48.808;9.006;2023-06-14T06:54:03;36.54;35.08;37.77;;
41704;Laerm;861;48.808;9.006;2023-06-14T06:56:30;36.59;35.16;37.71;;
41704;Laerm;861;48.808;9.006;2023-06-14T06:58:57;36.62;35.39;38.03;;
41704;Laerm;861;48.808;9.006;2023-06-14T07:01:24;36.65;35.38;37.95;;
41704;Laerm;861;48.808;9.006;2023-06-14T07:03:53;36.65;35.29;37.77;;
41704;Laerm;861;48.808;9.006;2023-06-14T07:06:19;36.68;35.29;38.07;;
41704;Laerm;861;48.808;9.006;2023-06-14T07:08:46;36.72;35.49;37.83;;
41704;Laerm;861;48.808;9.006;2023-06-14T07:11:15;36.76;35.49;38.03;;
41704;Laerm;861;48.808;9.006;2023-06-14T07:13:41;36.77;35.26;37.94;;
41704;Laerm;861;48.808;9.006;2023-06-14T07:16:08;36.80;35.62;38.16;;
41704;Laerm;861;48.808;9.006;2023-06-14T07:18:34;36.78;35.57;37.94;;
41704;Laerm;861;48.808;9.006;2023-06-14T07:21:02;36.79;35.43;38.16;;
41704;Laerm;861;48.808;9.006;2023-06-14T07:23:29;36.80;35.12;38.07;;
41704;Laerm;861;48.808;9.006;2023-06-14T07:25:56;36.80;35.54;37.91;;
41704;Laerm;861;48.808;9.006;2023-06-14T07:28:22;36.83;35.64;37.97;;
41704;Laerm;861;48.808;9.006;2023-06-14T07:30:49;36.84;35.08;38.16;;
41704;Laerm;861;48.808;9.006;2023-06-14T07:33:15;36.84;35.41;37.98;;
41704;Laerm;861;48.808;9.006;2023-06-14T07:35:42;36.86;35.59;38.11;;
41704;Laerm;861;48.808;9.006;2023-06-14T07:38:09;36.88;35.62;38.24;;
41704;Laerm;861;48.808;9.006;2023-06-14T07:40:35;36.90;35.71;37.99;;
41704;Laerm;861;48.808;9.006;2023-06-14T07:43:02;36.92;35.43;38.31;;
41704;Laerm;861;48.808;9.006;2023-06-14T07:45:28;36.90;35.46;38.08;;
41704;Laerm;861;48.808;9.006;2023-06-14T07:47:55;36.91;35.49;38.18;;
41704;Laerm;861;48.808;9.006;2023-06-14T07:50:23;36.92;35.51;39.45;;
41704;Laerm;861;48.808;9.006;2023-06-14T07:52:49;36.90;35.56;38.17;;
41704;Laerm;861;48.808;9.006;2023-06-14T07:55:16;36.93;35.73;38.47;;
41704;Laerm;861;48.808;9.006;2023-06-14T07:57:43;36.97;35.83;38.40;;
41704;Laerm;861;48.808;9.006;2023-06-14T08:00:11;36.97;35.59;42.61;;
41704;Laerm;861;48.808;9.006;2023-06-14T08:02:44;36.98;35.53;38.26;;
41704;Laerm;861;48.808;9.006;2023-06-14T08:05:12;36.96;35.78;38.10;;
41704;Laerm;861;48.808;9.006;2023-06-14T08:07:40;36.96;35.56;38.25;;
41704;Laerm;861;48.808;9.006;2023-06-14T08:10:07;36.97;35.73;38.75;;
41704;Laerm;861;48.808;9.006;2023-06-14T08:12:34;36.97;35.60;39.28;;
41704;Laerm;861;48.808;9.006;2023-06-14T08:15:01;36.98;35.51;38.25;;
41704;Laerm;861;48.808;9.006;2023-06-14T08:17:28;36.98;35.46;38.38;;
41704;Laerm;861;48.808;9.006;2023-06-14T08:19:54;36.99;35.64;39.95;;
41704;Laerm;861;48.808;9.006;2023-06-14T08:22:24;36.98;35.78;39.24;;
41704;Laerm;861;48.808;9.006;2023-06-14T08:24:51;36.99;35.80;38.30;;
41704;Laerm;861;48.808;9.006;2023-06-14T08:27:21;36.99;35.72;38.43;;
41704;Laerm;861;48.808;9.006;2023-06-14T08:29:48;36.95;35.68;38.16;;
41704;Laerm;861;48.808;9.006;2023-06-14T08:32:15;36.96;35.62;38.11;;
41704;Laerm;861;48.808;9.006;2023-06-14T08:34:41;36.94;35.61;38.23;;
41704;Laerm;861;48.808;9.006;2023-06-14T08:37:08;36.92;35.58;38.43;;
41704;Laerm;861;48.808;9.006;2023-06-14T08:39:34;36.93;35.65;38.14;;
41704;Laerm;861;48.808;9.006;2023-06-14T08:42:04;36.92;35.53;38.25;;
41704;Laerm;861;48.808;9.006;2023-06-14T08:44:33;36.91;35.76;38.13;;
41704;Laerm;861;48.808;9.006;2023-06-14T08:47:06;36.91;35.52;38.13;;
41704;Laerm;861;48.808;9.006;2023-06-14T08:49:36;36.89;35.20;38.16;;
41704;Laerm;861;48.808;9.006;2023-06-14T08:52:08;36.90;35.52;38.26;;
41704;Laerm;861;48.808;9.006;2023-06-14T08:54:37;36.90;35.51;38.12;;
41704;Laerm;861;48.808;9.006;2023-06-14T08:57:12;36.88;35.36;38.20;;
41704;Laerm;861;48.808;9.006;2023-06-14T08:59:47;36.84;35.40;38.27;;
41704;Laerm;861;48.808;9.006;2023-06-14T09:02:19;36.84;35.56;38.15;;
41704;Laerm;861;48.808;9.006;2023-06-14T09:04:48;36.82;35.52;38.21;;
41704;Laerm;861;48.808;9.006;2023-06-14T09:07:18;36.81;35.40;38.14;;
41704;Laerm;861;48.808;9.006;2023-06-14T09:09:44;36.84;35.52;38.13;;
41704;Laerm;861;48.808;9.006;2023-06-14T09:12:12;36.89;35.52;39.33;;
41704;Laerm;861;48.808;9.006;2023-06-14T09:14:39;36.88;35.43;38.00;;
41704;Laerm;861;48.808;9.006;2023-06-14T09:17:08;36.81;35.42;38.20;;
41704;Laerm;861;48.808;9.006;2023-06-14T09:19:35;36.78;35.46;38.02;;
41704;Laerm;861;48.808;9.006;2023-06-14T09:22:04;36.75;35.22;38.05;;
41704;Laerm;861;48.808;9.006;2023-06-14T09:24:31;36.83;35.44;41.54;;
41704;Laerm;861;48.808;9.006;2023-06-14T09:26:58;36.80;35.46;40.45;;
41704;Laerm;861;48.808;9.006;2023-06-14T09:29:24;36.72;35.42;39.75;;
41704;Laerm;861;48.808;9.006;2023-06-14T09:31:53;36.70;35.31;38.26;;
41704;Laerm;861;48.808;9.006;2023-06-14T09:34:21;36.66;35.03;38.03;;
41704;Laerm;861;48.808;9.006;2023-06-14T09:36:50;36.65;35.26;38.24;;
41704;Laerm;861;48.808;9.006;2023-06-14T09:39:19;36.66;35.33;37.89;;
41704;Laerm;861;48.808;9.006;2023-06-14T09:41:45;36.66;35.21;38.09;;
41704;Laerm;861;48.808;9.006;2023-06-14T09:44:12;36.55;35.24;51.71;;
41704;Laerm;861;48.808;9.006;2023-06-14T09:46:39;36.48;35.17;38.92;;
41704;Laerm;861;48.808;9.006;2023-06-14T09:49:07;36.40;34.92;37.65;;
41704;Laerm;861;48.808;9.006;2023-06-14T09:51:42;36.31;34.90;37.89;;
41704;Laerm;861;48.808;9.006;2023-06-14T09:54:22;36.21;34.71;37.67;;
41704;Laerm;861;48.808;9.006;2023-06-14T09:56:51;36.12;34.83;37.33;;
41704;Laerm;861;48.808;9.006;2023-06-14T09:59:26;36.09;34.49;37.26;;
41704;Laerm;861;48.808;9.006;2023-06-14T10:02:09;35.92;34.38;37.25;;
41704;Laerm;861;48.808;9.006;2023-06-14T10:04:48;35.85;34.35;40.20;;
41704;Laerm;861;48.808;9.006;2023-06-14T10:07:21;35.84;34.42;37.23;;
41704;Laerm;861;48.808;9.006;2023-06-14T10:09:49;35.83;34.41;37.30;;
41704;Laerm;861;48.808;9.006;2023-06-14T10:12:19;35.58;34.16;39.13;;
41704;Laerm;861;48.808;9.006;2023-06-14T10:14:52;35.44;33.92;37.80;;
41704;Laerm;861;48.808;9.006;2023-06-14T10:18:00;35.43;34.22;37.70;;
41704;Laerm;861;48.808;9.006;2023-06-14T10:23:25;35.44;34.01;36.69;;
41704;Laerm;861;48.808;9.006;2023-06-14T10:25:58;35.49;34.16;36.81;;
41704;Laerm;861;48.808;9.006;2023-06-14T10:28:26;35.23;33.71;36.90;;
41704;Laerm;861;48.808;9.006;2023-06-14T10:31:11;34.96;33.62;36.28;;
41704;Laerm;861;48.808;9.006;2023-06-14T10:36:30;34.87;33.40;36.43;;
41704;Laerm;861;48.808;9.006;2023-06-14T10:39:14;35.00;33.57;36.52;;
41704;Laerm;861;48.808;9.006;2023-06-14T10:41:50;35.08;33.73;36.89;;
41704;Laerm;861;48.808;9.006;2023-06-14T10:46:52;34.95;33.64;36.32;;
41704;Laerm;861;48.808;9.006;2023-06-14T10:49:20;35.00;33.60;47.15;;
41704;Laerm;861;48.808;9.006;2023-06-14T10:52:04;35.16;33.45;36.66;;
41704;Laerm;861;48.808;9.006;2023-06-14T10:54:32;35.33;33.75;37.34;;
41704;Laerm;861;48.808;9.006;2023-06-14T10:56:59;35.21;33.71;37.58;;
41704;Laerm;861;48.808;9.006;2023-06-14T10:59:26;35.18;33.82;37.39;;
41704;Laerm;861;48.808;9.006;2023-06-14T11:05:25;35.06;33.70;38.25;;
41704;Laerm;861;48.808;9.006;2023-06-14T11:11:14;34.82;33.08;39.30;;
41704;Laerm;861;48.808;9.006;2023-06-14T11:13:46;34.84;33.30;38.72;;
41704;Laerm;861;48.808;9.006;2023-06-14T11:16:18;34.73;33.36;36.01;;
41704;Laerm;861;48.808;9.006;2023-06-14T11:18:46;34.81;32.91;37.01;;
41704;Laerm;861;48.808;9.006;2023-06-14T11:21:17;34.79;33.39;36.88;;
41704;Laerm;861;48.808;9.006;2023-06-14T11:23:53;34.76;33.30;36.93;;
41704;Laerm;861;48.808;9.006;2023-06-14T11:26:37;34.87;33.32;37.17;;
41704;Laerm;861;48.808;9.006;2023-06-14T11:29:04;34.69;33.21;37.09;;
41704;Laerm;861;48.808;9.006;2023-06-14T11:31:31;34.61;33.16;36.19;;
41704;Laerm;861;48.808;9.006;2023-06-14T11:34:00;34.59;32.94;41.50;;
41704;Laerm;861;48.808;9.006;2023-06-14T11:36:36;34.71;32.80;40.40;;
41704;Laerm;861;48.808;9.006;2023-06-14T11:39:07;34.51;33.00;35.73;;
41704;Laerm;861;48.808;9.006;2023-06-14T11:41:45;34.51;32.83;36.32;;
41704;Laerm;861;48.808;9.006;2023-06-14T11:44:12;34.49;33.07;36.47;;
41704;Laerm;861;48.808;9.006;2023-06-14T11:46:39;34.51;33.03;35.81;;
41704;Laerm;861;48.808;9.006;2023-06-14T11:49:08;34.37;33.01;44.42;;
41704;Laerm;861;48.808;9.006;2023-06-14T11:51:36;34.36;32.93;35.81;;
41704;Laerm;861;48.808;9.006;2023-06-14T11:54:06;34.26;32.73;35.58;;
41704;Laerm;861;48.808;9.006;2023-06-14T11:56:33;34.37;33.02;37.58;;
41704;Laerm;861;48.808;9.006;2023-06-14T11:59:02;34.40;32.81;35.94;;
41704;Laerm;861;48.808;9.006;2023-06-14T12:01:31;34.49;32.99;35.98;;
41704;Laerm;861;48.808;9.006;2023-06-14T12:03:59;34.31;32.89;36.69;;
41704;Laerm;861;48.808;9.006;2023-06-14T12:06:31;34.30;32.88;43.32;;
41704;Laerm;861;48.808;9.006;2023-06-14T12:09:07;34.40;32.93;36.15;;
41704;Laerm;861;48.808;9.006;2023-06-14T12:11:39;34.30;32.92;36.40;;
41704;Laerm;861;48.808;9.006;2023-06-14T12:14:08;34.26;32.94;35.74;;
41704;Laerm;861;48.808;9.006;2023-06-14T12:16:38;34.27;32.90;41.64;;
41704;Laerm;861;48.808;9.006;2023-06-14T12:19:18;34.23;32.72;36.94;;
41704;Laerm;861;48.808;9.006;2023-06-14T12:21:48;34.15;32.71;35.80;;
41704;Laerm;861;48.808;9.006;2023-06-14T12:24:15;34.11;32.62;40.51;;
41704;Laerm;861;48.808;9.006;2023-06-14T12:26:43;34.16;32.36;45.14;;
41704;Laerm;861;48.808;9.006;2023-06-14T12:29:09;34.05;32.68;35.28;;
41704;Laerm;861;48.808;9.006;2023-06-14T12:31:38;34.26;32.90;35.90;;
41704;Laerm;861;48.808;9.006;2023-06-14T12:34:05;34.14;32.41;35.49;;
41704;Laerm;861;48.808;9.006;2023-06-14T12:36:31;34.30;32.84;35.47;;
41704;Laerm;861;48.808;9.006;2023-06-14T12:38:58;34.22;32.63;35.69;;
41704;Laerm;861;48.808;9.006;2023-06-14T12:41:25;34.11;32.62;35.50;;
41704;Laerm;861;48.808;9.006;2023-06-14T12:43:53;33.83;32.26;37.27;;
41704;Laerm;861;48.808;9.006;2023-06-14T12:46:20;33.81;32.26;38.76;;
41704;Laerm;861;48.808;9.006;2023-06-14T12:48:47;33.94;32.43;37.88;;
41704;Laerm;861;48.808;9.006;2023-06-14T12:51:13;34.00;32.57;38.54;;
41704;Laerm;861;48.808;9.006;2023-06-14T12:53:41;34.06;32.46;38.73;;
41704;Laerm;861;48.808;9.006;2023-06-14T12:56:08;34.04;32.53;37.61;;
41704;Laerm;861;48.808;9.006;2023-06-14T12:58:34;34.08;32.47;38.71;;
41704;Laerm;861;48.808;9.006;2023-06-14T13:01:01;34.00;32.72;36.39;;
41704;Laerm;861;48.808;9.006;2023-06-14T13:03:27;33.87;32.16;40.94;;
41704;Laerm;861;48.808;9.006;2023-06-14T13:05:54;33.86;32.35;35.27;;
41704;Laerm;861;48.808;9.006;2023-06-14T13:08:21;34.10;32.48;35.78;;
41704;Laerm;861;48.808;9.006;2023-06-14T13:10:48;34.04;32.53;35.41;;
41704;Laerm;861;48.808;9.006;2023-06-14T13:13:15;33.92;32.30;39.20;;
41704;Laerm;861;48.808;9.006;2023-06-14T13:15:41;33.95;32.32;35.47;;
41704;Laerm;861;48.808;9.006;2023-06-14T13:18:08;33.61;31.93;35.13;;
41704;Laerm;861;48.808;9.006;2023-06-14T13:20:34;33.41;31.73;34.93;;
41704;Laerm;861;48.808;9.006;2023-06-14T13:23:01;33.50;31.76;38.87;;
41704;Laerm;861;48.808;9.006;2023-06-14T13:25:29;33.71;32.10;36.89;;
41704;Laerm;861;48.808;9.006;2023-06-14T13:27:56;33.86;32.47;36.09;;
41704;Laerm;861;48.808;9.006;2023-06-14T13:30:22;33.91;32.34;35.19;;
41704;Laerm;861;48.808;9.006;2023-06-14T13:32:49;33.85;32.17;37.27;;
41704;Laerm;861;48.808;9.006;2023-06-14T13:35:20;33.93;32.43;44.04;;
41704;Laerm;861;48.808;9.006;2023-06-14T13:37:47;33.91;32.10;38.66;;
41704;Laerm;861;48.808;9.006;2023-06-14T13:40:14;34.03;32.66;37.33;;
41704;Laerm;861;48.808;9.006;2023-06-14T13:42:40;33.92;32.53;37.41;;
41704;Laerm;861;48.808;9.006;2023-06-14T13:45:11;33.86;32.38;37.35;;
41704;Laerm;861;48.808;9.006;2023-06-14T13:47:39;33.86;32.03;40.60;;
41704;Laerm;861;48.808;9.006;2023-06-14T13:50:06;33.65;32.23;35.40;;
41704;Laerm;861;48.808;9.006;2023-06-14T13:52:33;33.72;32.22;36.81;;
41704;Laerm;861;48.808;9.006;2023-06-14T13:55:01;33.84;32.28;35.31;;
41704;Laerm;861;48.808;9.006;2023-06-14T13:57:27;33.72;32.30;35.48;;
41704;Laerm;861;48.808;9.006;2023-06-14T13:59:54;33.60;32.18;35.13;;
41704;Laerm;861;48.808;9.006;2023-06-14T14:02:22;33.70;32.04;37.08;;
41704;Laerm;861;48.808;9.006;2023-06-14T14:04:48;33.50;31.82;35.07;;
41704;Laerm;861;48.808;9.006;2023-06-14T14:07:19;33.39;31.76;36.98;;
41704;Laerm;861;48.808;9.006;2023-06-14T14:09:46;33.32;31.73;36.25;;
41704;Laerm;861;48.808;9.006;2023-06-14T14:12:14;33.49;31.72;38.05;;
41704;Laerm;861;48.808;9.006;2023-06-14T14:14:41;33.74;32.11;37.24;;
41704;Laerm;861;48.808;9.006;2023-06-14T14:17:07;33.70;32.24;37.60;;
41704;Laerm;861;48.808;9.006;2023-06-14T14:19:34;33.66;32.27;35.09;;
41704;Laerm;861;48.808;9.006;2023-06-14T14:22:01;33.80;32.25;37.62;;
41704;Laerm;861;48.808;9.006;2023-06-14T14:24:28;33.75;32.30;35.22;;
41704;Laerm;861;48.808;9.006;2023-06-14T14:26:54;33.86;32.42;35.27;;
41704;Laerm;861;48.808;9.006;2023-06-14T14:29:22;33.74;32.14;35.52;;
41704;Laerm;861;48.808;9.006;2023-06-14T14:31:49;33.67;32.21;35.45;;